sensor_id;sensor_type;location;lat;lon;timestamp;pressure;altitude;pressure_sealevel;temperature
76898;BMP180;65856;52.178;21.176;2023-08-21T00:01:59;100931.40;;;22.60
76898;BMP180;65856;52.178;21.176;2023-08-21T00:04:24;100928.40;;;22.58
76898;BMP180;65856;52.178;21.176;2023-08-21T00:06:50;100929.00;;;22.50
76898;BMP180;65856;52.178;21.176;2023-08-21T00:09:15;100929.00;;;22.60
76898;BMP180;65856;52.178;21.176;2023-08-21T00:11:41;100932.00;;;22.56
76898;BMP180;65856;52.178;21.176;2023-08-21T00:14:07;100933.80;;;22.50
76898;BMP180;65856;52.178;21.176;2023-08-21T00:16:32;100931.00;;;22.50
76898;BMP180;65856;52.178;21.176;2023-08-21T00:18:58;100934.40;;;22.50
76898;BMP180;65856;52.178;21.176;2023-08-21T00:21:23;100929.00;;;22.50
76898;BMP180;65856;52.178;21.176;2023-08-21T00:23:49;100929.00;;;22.40
76898;BMP180;65856;52.178;21.176;2023-08-21T00:26:14;100925.20;;;22.40
76898;BMP180;65856;52.178;21.176;2023-08-21T00:28:40;100929.80;;;22.40
76898;BMP180;65856;52.178;21.176;2023-08-21T00:31:05;100934.80;;;22.40
76898;BMP180;65856;52.178;21.176;2023-08-21T00:33:32;100936.00;;;22.30
76898;BMP180;65856;52.178;21.176;2023-08-21T00:35:58;100939.00;;;22.36
76898;BMP180;65856;52.178;21.176;2023-08-21T00:38:24;100939.80;;;22.30
76898;BMP180;65856;52.178;21.176;2023-08-21T00:40:51;100941.00;;;22.30
76898;BMP180;65856;52.178;21.176;2023-08-21T00:43:16;100942.20;;;22.30
76898;BMP180;65856;52.178;21.176;2023-08-21T00:45:44;100941.80;;;22.20
76898;BMP180;65856;52.178;21.176;2023-08-21T00:48:13;100944.20;;;22.20
76898;BMP180;65856;52.178;21.176;2023-08-21T00:50:40;100943.40;;;22.20
76898;BMP180;65856;52.178;21.176;2023-08-21T00:53:05;100946.80;;;22.20
76898;BMP180;65856;52.178;21.176;2023-08-21T00:55:32;100949.00;;;22.20
76898;BMP180;65856;52.178;21.176;2023-08-21T00:57:58;100945.20;;;22.18
76898;BMP180;65856;52.178;21.176;2023-08-21T01:00:25;100949.60;;;22.10
76898;BMP180;65856;52.178;21.176;2023-08-21T01:02:52;100949.40;;;22.10
76898;BMP180;65856;52.178;21.176;2023-08-21T01:05:18;100948.80;;;22.10
76898;BMP180;65856;52.178;21.176;2023-08-21T01:07:58;100950.00;;;22.04
76898;BMP180;65856;52.178;21.176;2023-08-21T01:10:41;100948.40;;;22.00
76898;BMP180;65856;52.178;21.176;2023-08-21T01:16:37;100949.00;;;22.00
76898;BMP180;65856;52.178;21.176;2023-08-21T01:19:19;100945.60;;;21.90
76898;BMP180;65856;52.178;21.176;2023-08-21T01:21:50;100952.80;;;21.70
76898;BMP180;65856;52.178;21.176;2023-08-21T01:24:19;100948.20;;;21.70
76898;BMP180;65856;52.178;21.176;2023-08-21T01:26:45;100950.40;;;21.60
76898;BMP180;65856;52.178;21.176;2023-08-21T01:29:11;100952.00;;;21.50
76898;BMP180;65856;52.178;21.176;2023-08-21T01:31:37;100948.20;;;21.50
76898;BMP180;65856;52.178;21.176;2023-08-21T01:34:09;100944.60;;;21.60
76898;BMP180;65856;52.178;21.176;2023-08-21T01:36:36;100947.00;;;21.60
76898;BMP180;65856;52.178;21.176;2023-08-21T01:39:03;100947.40;;;21.60
76898;BMP180;65856;52.178;21.176;2023-08-21T01:41:28;100952.80;;;21.64
76898;BMP180;65856;52.178;21.176;2023-08-21T01:43:54;100954.00;;;21.66
76898;BMP180;65856;52.178;21.176;2023-08-21T01:46:20;100956.80;;;21.60
76898;BMP180;65856;52.178;21.176;2023-08-21T01:48:45;100953.00;;;21.64
76898;BMP180;65856;52.178;21.176;2023-08-21T01:51:11;100950.80;;;21.70
76898;BMP180;65856;52.178;21.176;2023-08-21T01:53:36;100954.20;;;21.70
76898;BMP180;65856;52.178;21.176;2023-08-21T01:56:02;100958.20;;;21.66
76898;BMP180;65856;52.178;21.176;2023-08-21T01:58:27;100957.80;;;21.60
76898;BMP180;65856;52.178;21.176;2023-08-21T02:00:53;100955.00;;;21.50
76898;BMP180;65856;52.178;21.176;2023-08-21T02:03:18;100951.60;;;21.50
76898;BMP180;65856;52.178;21.176;2023-08-21T02:05:44;100952.80;;;21.50
76898;BMP180;65856;52.178;21.176;2023-08-21T02:08:13;100954.60;;;21.50
76898;BMP180;65856;52.178;21.176;2023-08-21T02:10:52;100954.00;;;21.50
76898;BMP180;65856;52.178;21.176;2023-08-21T02:13:18;100949.80;;;21.50
76898;BMP180;65856;52.178;21.176;2023-08-21T02:15:44;100945.00;;;21.50
76898;BMP180;65856;52.178;21.176;2023-08-21T02:18:10;100942.00;;;21.50
76898;BMP180;65856;52.178;21.176;2023-08-21T02:20:35;100943.40;;;21.50
76898;BMP180;65856;52.178;21.176;2023-08-21T02:23:01;100936.20;;;21.50
76898;BMP180;65856;52.178;21.176;2023-08-21T02:25:26;100937.80;;;21.50
76898;BMP180;65856;52.178;21.176;2023-08-21T02:27:52;100928.80;;;21.50
76898;BMP180;65856;52.178;21.176;2023-08-21T02:30:17;100929.00;;;21.50
76898;BMP180;65856;52.178;21.176;2023-08-21T02:32:43;100919.80;;;21.50
76898;BMP180;65856;52.178;21.176;2023-08-21T02:35:08;100921.60;;;21.50
76898;BMP180;65856;52.178;21.176;2023-08-21T02:37:34;100929.80;;;21.50
76898;BMP180;65856;52.178;21.176;2023-08-21T02:40:06;100931.60;;;21.30
76898;BMP180;65856;52.178;21.176;2023-08-21T02:42:33;100935.00;;;21.30
76898;BMP180;65856;52.178;21.176;2023-08-21T02:44:59;100925.00;;;21.24
76898;BMP180;65856;52.178;21.176;2023-08-21T02:47:24;100927.80;;;21.20
76898;BMP180;65856;52.178;21.176;2023-08-21T02:49:50;100925.20;;;21.20
76898;BMP180;65856;52.178;21.176;2023-08-21T02:52:17;100927.40;;;21.14
76898;BMP180;65856;52.178;21.176;2023-08-21T02:54:43;100929.20;;;21.14
76898;BMP180;65856;52.178;21.176;2023-08-21T02:57:09;100931.60;;;21.20
76898;BMP180;65856;52.178;21.176;2023-08-21T02:59:34;100931.00;;;21.10
76898;BMP180;65856;52.178;21.176;2023-08-21T03:02:00;100934.00;;;21.10
76898;BMP180;65856;52.178;21.176;2023-08-21T03:04:25;100939.00;;;21.10
76898;BMP180;65856;52.178;21.176;2023-08-21T03:06:50;100935.00;;;21.08
76898;BMP180;65856;52.178;21.176;2023-08-21T03:09:16;100931.40;;;21.10
76898;BMP180;65856;52.178;21.176;2023-08-21T03:11:41;100936.80;;;21.00
76898;BMP180;65856;52.178;21.176;2023-08-21T03:14:07;100933.00;;;21.00
76898;BMP180;65856;52.178;21.176;2023-08-21T03:16:33;100932.60;;;20.98
76898;BMP180;65856;52.178;21.176;2023-08-21T03:19:00;100930.40;;;20.90
76898;BMP180;65856;52.178;21.176;2023-08-21T03:21:26;100924.00;;;20.90
76898;BMP180;65856;52.178;21.176;2023-08-21T03:23:56;100923.20;;;20.90
76898;BMP180;65856;52.178;21.176;2023-08-21T03:26:24;100927.00;;;20.90
76898;BMP180;65856;52.178;21.176;2023-08-21T03:28:49;100925.00;;;20.90
76898;BMP180;65856;52.178;21.176;2023-08-21T03:31:15;100919.00;;;20.90
76898;BMP180;65856;52.178;21.176;2023-08-21T03:33:40;100921.80;;;20.90
76898;BMP180;65856;52.178;21.176;2023-08-21T03:36:06;100923.60;;;20.90
76898;BMP180;65856;52.178;21.176;2023-08-21T03:38:32;100928.60;;;20.90
76898;BMP180;65856;52.178;21.176;2023-08-21T03:40:58;100927.00;;;20.90
76898;BMP180;65856;52.178;21.176;2023-08-21T03:43:24;100926.20;;;20.90
76898;BMP180;65856;52.178;21.176;2023-08-21T03:45:49;100931.40;;;20.90
76898;BMP180;65856;52.178;21.176;2023-08-21T03:48:15;100931.40;;;20.90
76898;BMP180;65856;52.178;21.176;2023-08-21T03:50:40;100933.80;;;20.90
76898;BMP180;65856;52.178;21.176;2023-08-21T03:53:06;100934.40;;;20.90
76898;BMP180;65856;52.178;21.176;2023-08-21T03:55:31;100939.60;;;20.90
76898;BMP180;65856;52.178;21.176;2023-08-21T03:57:57;100940.20;;;20.90
76898;BMP180;65856;52.178;21.176;2023-08-21T04:00:22;100939.20;;;20.90
76898;BMP180;65856;52.178;21.176;2023-08-21T04:02:48;100939.00;;;20.84
76898;BMP180;65856;52.178;21.176;2023-08-21T04:05:13;100934.60;;;20.82
76898;BMP180;65856;52.178;21.176;2023-08-21T04:07:39;100930.60;;;20.80
76898;BMP180;65856;52.178;21.176;2023-08-21T04:10:06;100933.60;;;20.84
76898;BMP180;65856;52.178;21.176;2023-08-21T04:12:31;100932.00;;;20.90
76898;BMP180;65856;52.178;21.176;2023-08-21T04:14:57;100933.80;;;20.90
76898;BMP180;65856;52.178;21.176;2023-08-21T04:17:23;100936.20;;;20.90
76898;BMP180;65856;52.178;21.176;2023-08-21T04:19:52;100939.40;;;20.94
76898;BMP180;65856;52.178;21.176;2023-08-21T04:22:17;100937.20;;;21.00
76898;BMP180;65856;52.178;21.176;2023-08-21T04:24:44;100932.00;;;21.00
76898;BMP180;65856;52.178;21.176;2023-08-21T04:27:09;100930.40;;;21.10
76898;BMP180;65856;52.178;21.176;2023-08-21T04:29:35;100933.60;;;21.10
76898;BMP180;65856;52.178;21.176;2023-08-21T04:32:01;100928.20;;;21.20
76898;BMP180;65856;52.178;21.176;2023-08-21T04:34:27;100925.00;;;21.30
76898;BMP180;65856;52.178;21.176;2023-08-21T04:36:52;100923.80;;;21.36
76898;BMP180;65856;52.178;21.176;2023-08-21T04:39:18;100933.80;;;21.44
76898;BMP180;65856;52.178;21.176;2023-08-21T04:41:44;100938.60;;;21.50
76898;BMP180;65856;52.178;21.176;2023-08-21T04:44:09;100948.20;;;21.60
76898;BMP180;65856;52.178;21.176;2023-08-21T04:46:35;100946.80;;;21.60
76898;BMP180;65856;52.178;21.176;2023-08-21T04:49:00;100948.20;;;21.60
76898;BMP180;65856;52.178;21.176;2023-08-21T04:51:26;100946.00;;;21.60
76898;BMP180;65856;52.178;21.176;2023-08-21T04:53:51;100947.80;;;21.68
76898;BMP180;65856;52.178;21.176;2023-08-21T04:56:16;100955.40;;;21.70
76898;BMP180;65856;52.178;21.176;2023-08-21T04:58:42;100957.20;;;21.80
76898;BMP180;65856;52.178;21.176;2023-08-21T05:01:07;100952.00;;;21.88
76898;BMP180;65856;52.178;21.176;2023-08-21T05:03:33;100945.20;;;21.92
76898;BMP180;65856;52.178;21.176;2023-08-21T05:05:59;100944.20;;;22.02
76898;BMP180;65856;52.178;21.176;2023-08-21T05:08:26;100942.00;;;22.12
76898;BMP180;65856;52.178;21.176;2023-08-21T05:10:58;100946.20;;;22.28
76898;BMP180;65856;52.178;21.176;2023-08-21T05:13:25;100943.40;;;22.36
76898;BMP180;65856;52.178;21.176;2023-08-21T05:15:56;100946.40;;;22.40
76898;BMP180;65856;52.178;21.176;2023-08-21T05:18:23;100950.60;;;22.50
76898;BMP180;65856;52.178;21.176;2023-08-21T05:20:52;100957.60;;;22.60
76898;BMP180;65856;52.178;21.176;2023-08-21T05:23:18;100957.40;;;22.60
76898;BMP180;65856;52.178;21.176;2023-08-21T05:25:45;100953.20;;;22.70
76898;BMP180;65856;52.178;21.176;2023-08-21T05:28:11;100955.60;;;22.70
76898;BMP180;65856;52.178;21.176;2023-08-21T05:30:38;100954.20;;;22.80
76898;BMP180;65856;52.178;21.176;2023-08-21T05:33:03;100955.20;;;22.90
76898;BMP180;65856;52.178;21.176;2023-08-21T05:35:34;100958.80;;;22.96
76898;BMP180;65856;52.178;21.176;2023-08-21T05:38:04;100961.60;;;23.00
76898;BMP180;65856;52.178;21.176;2023-08-21T05:40:31;100955.80;;;23.10
76898;BMP180;65856;52.178;21.176;2023-08-21T05:42:57;100955.20;;;23.20
76898;BMP180;65856;52.178;21.176;2023-08-21T05:45:23;100950.20;;;23.36
76898;BMP180;65856;52.178;21.176;2023-08-21T05:47:49;100962.40;;;23.50
76898;BMP180;65856;52.178;21.176;2023-08-21T05:50:14;100963.20;;;23.70
76898;BMP180;65856;52.178;21.176;2023-08-21T05:52:40;100967.40;;;23.82
76898;BMP180;65856;52.178;21.176;2023-08-21T05:55:05;100972.60;;;24.00
76898;BMP180;65856;52.178;21.176;2023-08-21T05:57:31;100972.00;;;24.10
76898;BMP180;65856;52.178;21.176;2023-08-21T05:59:57;100979.00;;;24.20
76898;BMP180;65856;52.178;21.176;2023-08-21T06:02:22;100978.60;;;24.30
76898;BMP180;65856;52.178;21.176;2023-08-21T06:04:49;100984.40;;;24.40
76898;BMP180;65856;52.178;21.176;2023-08-21T06:07:14;100986.00;;;24.46
76898;BMP180;65856;52.178;21.176;2023-08-21T06:09:40;100983.40;;;24.50
76898;BMP180;65856;52.178;21.176;2023-08-21T06:12:05;100984.40;;;24.50
76898;BMP180;65856;52.178;21.176;2023-08-21T06:14:31;100984.60;;;24.50
76898;BMP180;65856;52.178;21.176;2023-08-21T06:16:59;100980.40;;;24.52
76898;BMP180;65856;52.178;21.176;2023-08-21T06:19:26;100976.60;;;24.60
76898;BMP180;65856;52.178;21.176;2023-08-21T06:21:53;100979.40;;;24.60
76898;BMP180;65856;52.178;21.176;2023-08-21T06:24:19;100992.40;;;24.70
76898;BMP180;65856;52.178;21.176;2023-08-21T06:26:45;101002.00;;;24.70
76898;BMP180;65856;52.178;21.176;2023-08-21T06:29:10;101008.80;;;24.80
76898;BMP180;65856;52.178;21.176;2023-08-21T06:31:36;101002.00;;;24.88
76898;BMP180;65856;52.178;21.176;2023-08-21T06:34:01;100999.40;;;24.90
76898;BMP180;65856;52.178;21.176;2023-08-21T06:36:27;101002.40;;;24.90
76898;BMP180;65856;52.178;21.176;2023-08-21T06:38:52;101001.60;;;24.90
76898;BMP180;65856;52.178;21.176;2023-08-21T06:41:18;101005.20;;;24.90
76898;BMP180;65856;52.178;21.176;2023-08-21T06:43:43;101009.00;;;24.90
76898;BMP180;65856;52.178;21.176;2023-08-21T06:46:09;101001.00;;;24.90
76898;BMP180;65856;52.178;21.176;2023-08-21T06:48:38;101008.80;;;24.80
76898;BMP180;65856;52.178;21.176;2023-08-21T06:51:07;101017.20;;;24.80
76898;BMP180;65856;52.178;21.176;2023-08-21T06:53:34;101020.80;;;24.80
76898;BMP180;65856;52.178;21.176;2023-08-21T06:55:59;101029.00;;;24.80
76898;BMP180;65856;52.178;21.176;2023-08-21T06:58:25;101028.80;;;24.90
76898;BMP180;65856;52.178;21.176;2023-08-21T07:00:50;101029.60;;;24.98
76898;BMP180;65856;52.178;21.176;2023-08-21T07:03:18;101034.40;;;25.10
76898;BMP180;65856;52.178;21.176;2023-08-21T07:05:46;101044.80;;;25.20
76898;BMP180;65856;52.178;21.176;2023-08-21T07:08:19;101048.40;;;25.30
76898;BMP180;65856;52.178;21.176;2023-08-21T07:10:44;101059.40;;;25.32
76898;BMP180;65856;52.178;21.176;2023-08-21T07:13:10;101057.20;;;25.30
76898;BMP180;65856;52.178;21.176;2023-08-21T07:15:35;101062.60;;;25.20
76898;BMP180;65856;52.178;21.176;2023-08-21T07:18:01;101066.60;;;25.20
76898;BMP180;65856;52.178;21.176;2023-08-21T07:20:26;101073.00;;;25.20
76898;BMP180;65856;52.178;21.176;2023-08-21T07:22:52;101074.40;;;25.10
76898;BMP180;65856;52.178;21.176;2023-08-21T07:25:17;101076.00;;;25.10
76898;BMP180;65856;52.178;21.176;2023-08-21T07:27:42;101085.60;;;25.02
76898;BMP180;65856;52.178;21.176;2023-08-21T07:30:08;101085.20;;;25.00
76898;BMP180;65856;52.178;21.176;2023-08-21T07:32:34;101091.80;;;24.90
76898;BMP180;65856;52.178;21.176;2023-08-21T07:34:59;101100.80;;;24.80
76898;BMP180;65856;52.178;21.176;2023-08-21T07:37:25;101114.60;;;24.70
76898;BMP180;65856;52.178;21.176;2023-08-21T07:39:52;101109.00;;;24.66
76898;BMP180;65856;52.178;21.176;2023-08-21T07:42:18;101102.80;;;24.60
76898;BMP180;65856;52.178;21.176;2023-08-21T07:44:45;101100.40;;;24.60
76898;BMP180;65856;52.178;21.176;2023-08-21T07:47:11;101098.40;;;24.60
76898;BMP180;65856;52.178;21.176;2023-08-21T07:49:37;101105.60;;;24.60
76898;BMP180;65856;52.178;21.176;2023-08-21T07:52:05;101091.20;;;24.60
76898;BMP180;65856;52.178;21.176;2023-08-21T07:54:31;101096.80;;;24.50
76898;BMP180;65856;52.178;21.176;2023-08-21T07:56:57;101099.40;;;24.40
76898;BMP180;65856;52.178;21.176;2023-08-21T07:59:22;101098.00;;;24.40
76898;BMP180;65856;52.178;21.176;2023-08-21T08:01:48;101093.40;;;24.50
76898;BMP180;65856;52.178;21.176;2023-08-21T08:04:13;101091.80;;;24.50
76898;BMP180;65856;52.178;21.176;2023-08-21T08:06:39;101089.20;;;24.50
76898;BMP180;65856;52.178;21.176;2023-08-21T08:09:04;101079.80;;;24.60
76898;BMP180;65856;52.178;21.176;2023-08-21T08:11:30;101082.60;;;24.60
76898;BMP180;65856;52.178;21.176;2023-08-21T08:13:55;101083.00;;;24.68
76898;BMP180;65856;52.178;21.176;2023-08-21T08:16:21;101076.60;;;24.80
76898;BMP180;65856;52.178;21.176;2023-08-21T08:18:47;101079.60;;;24.90
76898;BMP180;65856;52.178;21.176;2023-08-21T08:21:13;101080.40;;;25.20
76898;BMP180;65856;52.178;21.176;2023-08-21T08:23:39;101081.60;;;25.30
76898;BMP180;65856;52.178;21.176;2023-08-21T08:26:04;101084.40;;;25.40
76898;BMP180;65856;52.178;21.176;2023-08-21T08:28:30;101079.40;;;25.50
76898;BMP180;65856;52.178;21.176;2023-08-21T08:30:55;101076.60;;;25.60
76898;BMP180;65856;52.178;21.176;2023-08-21T08:33:21;101075.00;;;25.70
76898;BMP180;65856;52.178;21.176;2023-08-21T08:35:46;101072.60;;;25.90
76898;BMP180;65856;52.178;21.176;2023-08-21T08:38:12;101066.80;;;26.00
76898;BMP180;65856;52.178;21.176;2023-08-21T08:40:44;101052.60;;;26.18
76898;BMP180;65856;52.178;21.176;2023-08-21T08:43:12;101050.80;;;26.20
76898;BMP180;65856;52.178;21.176;2023-08-21T08:45:41;101055.40;;;26.22
76898;BMP180;65856;52.178;21.176;2023-08-21T08:48:07;101053.80;;;26.20
76898;BMP180;65856;52.178;21.176;2023-08-21T08:50:34;101051.00;;;26.30
76898;BMP180;65856;52.178;21.176;2023-08-21T08:53:01;101054.00;;;26.50
76898;BMP180;65856;52.178;21.176;2023-08-21T08:55:27;101061.00;;;26.62
76898;BMP180;65856;52.178;21.176;2023-08-21T08:57:53;101058.60;;;26.72
76898;BMP180;65856;52.178;21.176;2023-08-21T09:00:22;101055.40;;;26.80
76898;BMP180;65856;52.178;21.176;2023-08-21T09:02:48;101051.40;;;26.98
76898;BMP180;65856;52.178;21.176;2023-08-21T09:05:13;101049.00;;;27.22
76898;BMP180;65856;52.178;21.176;2023-08-21T09:07:39;101045.40;;;27.50
76898;BMP180;65856;52.178;21.176;2023-08-21T09:10:13;101048.40;;;27.84
76898;BMP180;65856;52.178;21.176;2023-08-21T09:12:40;101037.00;;;28.12
76898;BMP180;65856;52.178;21.176;2023-08-21T09:15:08;101031.20;;;28.32
76898;BMP180;65856;52.178;21.176;2023-08-21T09:17:33;101026.40;;;28.50
76898;BMP180;65856;52.178;21.176;2023-08-21T09:20:07;101020.20;;;28.70
76898;BMP180;65856;52.178;21.176;2023-08-21T09:22:33;101018.20;;;28.90
76898;BMP180;65856;52.178;21.176;2023-08-21T09:25:06;101021.40;;;29.20
76898;BMP180;65856;52.178;21.176;2023-08-21T09:27:38;101019.00;;;29.40
76898;BMP180;65856;52.178;21.176;2023-08-21T09:30:11;101023.60;;;29.60
76898;BMP180;65856;52.178;21.176;2023-08-21T09:32:55;101029.40;;;29.84
76898;BMP180;65856;52.178;21.176;2023-08-21T09:35:23;101027.20;;;29.90
76898;BMP180;65856;52.178;21.176;2023-08-21T09:37:49;101027.00;;;30.00
76898;BMP180;65856;52.178;21.176;2023-08-21T09:40:19;101022.80;;;30.10
76898;BMP180;65856;52.178;21.176;2023-08-21T09:42:52;101020.80;;;30.20
76898;BMP180;65856;52.178;21.176;2023-08-21T09:45:24;101026.20;;;30.30
76898;BMP180;65856;52.178;21.176;2023-08-21T09:47:52;101025.80;;;30.40
76898;BMP180;65856;52.178;21.176;2023-08-21T09:50:21;101018.80;;;30.40
76898;BMP180;65856;52.178;21.176;2023-08-21T09:52:47;101020.20;;;30.50
76898;BMP180;65856;52.178;21.176;2023-08-21T09:55:14;101017.60;;;30.50
76898;BMP180;65856;52.178;21.176;2023-08-21T09:57:40;101016.40;;;30.50
76898;BMP180;65856;52.178;21.176;2023-08-21T10:00:08;101014.00;;;30.50
76898;BMP180;65856;52.178;21.176;2023-08-21T10:02:50;101015.60;;;30.60
76898;BMP180;65856;52.178;21.176;2023-08-21T10:05:17;101014.60;;;30.70
76898;BMP180;65856;52.178;21.176;2023-08-21T10:07:49;101014.00;;;30.70
76898;BMP180;65856;52.178;21.176;2023-08-21T10:10:16;101007.40;;;30.80
76898;BMP180;65856;52.178;21.176;2023-08-21T10:12:43;101006.60;;;30.90
76898;BMP180;65856;52.178;21.176;2023-08-21T10:15:09;101012.00;;;30.90
76898;BMP180;65856;52.178;21.176;2023-08-21T10:17:38;101015.80;;;31.00
76898;BMP180;65856;52.178;21.176;2023-08-21T10:20:06;101013.60;;;31.10
76898;BMP180;65856;52.178;21.176;2023-08-21T10:22:49;101009.80;;;31.10
76898;BMP180;65856;52.178;21.176;2023-08-21T10:25:20;101009.80;;;31.10
76898;BMP180;65856;52.178;21.176;2023-08-21T10:27:53;101013.20;;;31.20
76898;BMP180;65856;52.178;21.176;2023-08-21T10:30:26;101005.80;;;31.16
76898;BMP180;65856;52.178;21.176;2023-08-21T10:32:55;101014.00;;;31.10
76898;BMP180;65856;52.178;21.176;2023-08-21T10:35:28;101007.80;;;31.24
76898;BMP180;65856;52.178;21.176;2023-08-21T10:38:12;101004.20;;;31.30
76898;BMP180;65856;52.178;21.176;2023-08-21T10:41:04;101008.80;;;31.30
76898;BMP180;65856;52.178;21.176;2023-08-21T10:43:44;101005.40;;;31.30
76898;BMP180;65856;52.178;21.176;2023-08-21T10:46:11;101004.40;;;31.30
76898;BMP180;65856;52.178;21.176;2023-08-21T10:48:38;101014.60;;;31.30
76898;BMP180;65856;52.178;21.176;2023-08-21T10:51:07;101005.80;;;31.36
76898;BMP180;65856;52.178;21.176;2023-08-21T10:53:34;101012.00;;;31.40
76898;BMP180;65856;52.178;21.176;2023-08-21T10:56:05;101011.60;;;31.40
76898;BMP180;65856;52.178;21.176;2023-08-21T10:58:44;101010.20;;;31.50
76898;BMP180;65856;52.178;21.176;2023-08-21T11:01:13;101013.80;;;31.50
76898;BMP180;65856;52.178;21.176;2023-08-21T11:03:40;101011.80;;;31.50
76898;BMP180;65856;52.178;21.176;2023-08-21T11:06:08;101013.80;;;31.50
76898;BMP180;65856;52.178;21.176;2023-08-21T11:08:36;101020.00;;;31.52
76898;BMP180;65856;52.178;21.176;2023-08-21T11:11:05;101017.80;;;31.60
76898;BMP180;65856;52.178;21.176;2023-08-21T11:13:32;101016.40;;;31.50
76898;BMP180;65856;52.178;21.176;2023-08-21T11:16:01;101017.60;;;31.40
76898;BMP180;65856;52.178;21.176;2023-08-21T11:18:36;101017.20;;;31.40
76898;BMP180;65856;52.178;21.176;2023-08-21T11:21:11;101023.20;;;31.30
76898;BMP180;65856;52.178;21.176;2023-08-21T11:23:41;101022.80;;;31.30
76898;BMP180;65856;52.178;21.176;2023-08-21T11:26:11;101024.40;;;31.20
76898;BMP180;65856;52.178;21.176;2023-08-21T11:28:38;101016.40;;;31.18
76898;BMP180;65856;52.178;21.176;2023-08-21T11:31:06;101014.20;;;31.12
76898;BMP180;65856;52.178;21.176;2023-08-21T11:33:32;101018.00;;;31.10
76898;BMP180;65856;52.178;21.176;2023-08-21T11:36:00;101018.20;;;31.02
76898;BMP180;65856;52.178;21.176;2023-08-21T11:38:26;101016.40;;;30.90
76898;BMP180;65856;52.178;21.176;2023-08-21T11:40:58;101023.80;;;30.90
76898;BMP180;65856;52.178;21.176;2023-08-21T11:43:41;101019.00;;;30.90
76898;BMP180;65856;52.178;21.176;2023-08-21T11:46:09;101017.40;;;30.80
76898;BMP180;65856;52.178;21.176;2023-08-21T11:48:41;101020.80;;;30.80
76898;BMP180;65856;52.178;21.176;2023-08-21T11:51:07;101016.80;;;30.70
76898;BMP180;65856;52.178;21.176;2023-08-21T11:53:39;101016.60;;;30.70
76898;BMP180;65856;52.178;21.176;2023-08-21T11:56:27;101022.60;;;30.60
76898;BMP180;65856;52.178;21.176;2023-08-21T11:58:54;101021.60;;;30.60
76898;BMP180;65856;52.178;21.176;2023-08-21T12:01:20;101014.80;;;30.50
76898;BMP180;65856;52.178;21.176;2023-08-21T12:03:46;101015.80;;;30.46
76898;BMP180;65856;52.178;21.176;2023-08-21T12:06:21;101018.40;;;30.40
76898;BMP180;65856;52.178;21.176;2023-08-21T12:08:47;101014.80;;;30.40
76898;BMP180;65856;52.178;21.176;2023-08-21T12:11:12;101011.20;;;30.40
76898;BMP180;65856;52.178;21.176;2023-08-21T12:13:38;101010.20;;;30.30
76898;BMP180;65856;52.178;21.176;2023-08-21T12:16:04;101015.60;;;30.30
76898;BMP180;65856;52.178;21.176;2023-08-21T12:18:30;101012.40;;;30.20
76898;BMP180;65856;52.178;21.176;2023-08-21T12:20:56;101008.40;;;30.20
76898;BMP180;65856;52.178;21.176;2023-08-21T12:23:21;101004.20;;;30.10
76898;BMP180;65856;52.178;21.176;2023-08-21T12:25:47;101012.20;;;30.00
76898;BMP180;65856;52.178;21.176;2023-08-21T12:28:12;101009.20;;;29.90
76898;BMP180;65856;52.178;21.176;2023-08-21T12:30:38;101011.20;;;29.82
76898;BMP180;65856;52.178;21.176;2023-08-21T12:33:04;101007.40;;;29.78
76898;BMP180;65856;52.178;21.176;2023-08-21T12:35:29;101012.40;;;29.70
76898;BMP180;65856;52.178;21.176;2023-08-21T12:37:58;101010.20;;;29.60
76898;BMP180;65856;52.178;21.176;2023-08-21T12:40:23;101005.60;;;29.60
76898;BMP180;65856;52.178;21.176;2023-08-21T12:42:49;101007.20;;;29.60
76898;BMP180;65856;52.178;21.176;2023-08-21T12:45:16;101008.80;;;29.60
76898;BMP180;65856;52.178;21.176;2023-08-21T12:47:42;101003.20;;;29.60
76898;BMP180;65856;52.178;21.176;2023-08-21T12:50:08;101000.40;;;29.52
76898;BMP180;65856;52.178;21.176;2023-08-21T12:52:34;101001.20;;;29.54
76898;BMP180;65856;52.178;21.176;2023-08-21T12:54:59;100996.20;;;29.60
76898;BMP180;65856;52.178;21.176;2023-08-21T12:57:28;100998.80;;;29.60
76898;BMP180;65856;52.178;21.176;2023-08-21T12:59:53;100994.60;;;29.60
76898;BMP180;65856;52.178;21.176;2023-08-21T13:02:19;101006.00;;;29.70
76898;BMP180;65856;52.178;21.176;2023-08-21T13:04:44;101001.00;;;29.70
76898;BMP180;65856;52.178;21.176;2023-08-21T13:07:09;100996.80;;;29.70
76898;BMP180;65856;52.178;21.176;2023-08-21T13:09:35;100994.20;;;29.70
76898;BMP180;65856;52.178;21.176;2023-08-21T13:12:01;100994.00;;;29.70
76898;BMP180;65856;52.178;21.176;2023-08-21T13:14:26;100995.40;;;29.70
76898;BMP180;65856;52.178;21.176;2023-08-21T13:16:52;100989.60;;;29.70
76898;BMP180;65856;52.178;21.176;2023-08-21T13:19:17;100993.20;;;29.70
76898;BMP180;65856;52.178;21.176;2023-08-21T13:21:43;100983.40;;;29.60
76898;BMP180;65856;52.178;21.176;2023-08-21T13:24:09;100988.60;;;29.50
76898;BMP180;65856;52.178;21.176;2023-08-21T13:26:34;100984.80;;;29.50
76898;BMP180;65856;52.178;21.176;2023-08-21T13:29:00;100985.80;;;29.40
76898;BMP180;65856;52.178;21.176;2023-08-21T13:31:25;100981.20;;;29.42
76898;BMP180;65856;52.178;21.176;2023-08-21T13:33:52;100977.60;;;29.40
76898;BMP180;65856;52.178;21.176;2023-08-21T13:36:19;100981.80;;;29.40
76898;BMP180;65856;52.178;21.176;2023-08-21T13:38:46;100979.20;;;29.40
76898;BMP180;65856;52.178;21.176;2023-08-21T13:41:11;100981.60;;;29.40
76898;BMP180;65856;52.178;21.176;2023-08-21T13:43:37;100977.20;;;29.40
76898;BMP180;65856;52.178;21.176;2023-08-21T13:46:04;100980.80;;;29.36
76898;BMP180;65856;52.178;21.176;2023-08-21T13:48:30;100978.80;;;29.30